sensor_id;sensor_type;location;lat;lon;timestamp;pressure;altitude;pressure_sealevel;temperature;humidity
75767;BME280;64378;55.596;13.014;2023-06-22T00:02:12;101768.09;;;25.06;50.74
75767;BME280;64378;55.596;13.014;2023-06-22T00:04:37;101769.78;;;25.07;50.66
75767;BME280;64378;55.596;13.014;2023-06-22T00:07:03;101772.53;;;25.07;50.47
75767;BME280;64378;55.596;13.014;2023-06-22T00:09:28;101760.66;;;25.06;50.59
75767;BME280;64378;55.596;13.014;2023-06-22T00:11:53;101765.34;;;25.06;50.37
75767;BME280;64378;55.596;13.014;2023-06-22T00:14:18;101768.09;;;25.06;50.72
75767;BME280;64378;55.596;13.014;2023-06-22T00:16:44;101766.44;;;25.05;50.67
75767;BME280;64378;55.596;13.014;2023-06-22T00:19:09;101769.22;;;25.05;50.42
75767;BME280;64378;55.596;13.014;2023-06-22T00:21:36;101769.22;;;25.05;50.44
75767;BME280;64378;55.596;13.014;2023-06-22T00:24:02;101776.69;;;25.04;50.55
75767;BME280;64378;55.596;13.014;2023-06-22T00:26:27;101776.41;;;25.06;50.69
75767;BME280;64378;55.596;13.014;2023-06-22T00:28:53;101776.69;;;25.04;50.48
75767;BME280;64378;55.596;13.014;2023-06-22T00:31:18;101784.97;;;25.04;50.36
75767;BME280;64378;55.596;13.014;2023-06-22T00:33:43;101771.16;;;25.04;50.46
75767;BME280;64378;55.596;13.014;2023-06-22T00:36:08;101778.59;;;25.04;50.68
75767;BME280;64378;55.596;13.014;2023-06-22T00:38:38;101777.78;;;25.03;50.43
75767;BME280;64378;55.596;13.014;2023-06-22T00:41:05;101792.41;;;25.04;50.44
75767;BME280;64378;55.596;13.014;2023-06-22T00:43:30;101787.72;;;25.04;50.56
75767;BME280;64378;55.596;13.014;2023-06-22T00:45:56;101784.13;;;25.04;50.70
75767;BME280;64378;55.596;13.014;2023-06-22T00:48:21;101789.63;;;25.04;50.51
75767;BME280;64378;55.596;13.014;2023-06-22T00:50:47;101789.94;;;25.02;50.74
75767;BME280;64378;55.596;13.014;2023-06-22T00:53:15;101787.97;;;25.03;50.70
75767;BME280;64378;55.596;13.014;2023-06-22T00:55:42;101792.69;;;25.02;50.42
75767;BME280;64378;55.596;13.014;2023-06-22T00:58:12;101794.59;;;25.02;50.76
75767;BME280;64378;55.596;13.014;2023-06-22T01:00:38;101789.94;;;25.02;50.57
75767;BME280;64378;55.596;13.014;2023-06-22T01:03:04;101784.41;;;25.02;50.79
75767;BME280;64378;55.596;13.014;2023-06-22T01:05:29;101800.13;;;25.02;50.62
75767;BME280;64378;55.596;13.014;2023-06-22T01:08:08;101798.47;;;25.01;50.60
75767;BME280;64378;55.596;13.014;2023-06-22T01:10:44;101800.41;;;25.00;50.78
75767;BME280;64378;55.596;13.014;2023-06-22T01:15:48;101803.19;;;25.00;50.50
75767;BME280;64378;55.596;13.014;2023-06-22T01:18:15;101804.00;;;25.01;50.61
75767;BME280;64378;55.596;13.014;2023-06-22T01:20:42;101812.28;;;25.01;50.51
75767;BME280;64378;55.596;13.014;2023-06-22T01:23:11;101807.03;;;24.99;50.67
75767;BME280;64378;55.596;13.014;2023-06-22T01:30:56;101813.66;;;24.98;50.97
75767;BME280;64378;55.596;13.014;2023-06-22T01:33:31;101810.06;;;24.98;50.73
75767;BME280;64378;55.596;13.014;2023-06-22T01:35:58;101811.72;;;24.99;50.84
75767;BME280;64378;55.596;13.014;2023-06-22T01:38:23;101806.19;;;24.99;50.60
75767;BME280;64378;55.596;13.014;2023-06-22T01:40:49;101813.66;;;24.98;50.98
75767;BME280;64378;55.596;13.014;2023-06-22T01:43:15;101817.53;;;24.97;50.69
75767;BME280;64378;55.596;13.014;2023-06-22T01:45:40;101815.56;;;24.98;50.75
75767;BME280;64378;55.596;13.014;2023-06-22T01:48:06;101816.69;;;24.97;50.92
75767;BME280;64378;55.596;13.014;2023-06-22T01:50:31;101814.75;;;24.97;50.67
75767;BME280;64378;55.596;13.014;2023-06-22T01:52:57;101825.00;;;24.97;51.00
75767;BME280;64378;55.596;13.014;2023-06-22T01:55:22;101819.47;;;24.97;50.91
75767;BME280;64378;55.596;13.014;2023-06-22T01:57:47;101825.25;;;24.95;50.58
75767;BME280;64378;55.596;13.014;2023-06-22T02:00:14;101828.84;;;24.96;50.77
75767;BME280;64378;55.596;13.014;2023-06-22T02:02:46;101826.09;;;24.96;51.01
75767;BME280;64378;55.596;13.014;2023-06-22T02:05:15;101825.25;;;24.95;51.00
75767;BME280;64378;55.596;13.014;2023-06-22T02:07:42;101825.25;;;24.95;50.66
75767;BME280;64378;55.596;13.014;2023-06-22T02:10:09;101828.00;;;24.95;50.72
75767;BME280;64378;55.596;13.014;2023-06-22T02:12:37;101829.09;;;24.94;50.82
75767;BME280;64378;55.596;13.014;2023-06-22T02:15:03;101826.34;;;24.94;50.84
75767;BME280;64378;55.596;13.014;2023-06-22T02:17:29;101826.34;;;24.94;50.96
75767;BME280;64378;55.596;13.014;2023-06-22T02:19:58;101826.34;;;24.94;50.72
75767;BME280;64378;55.596;13.014;2023-06-22T02:22:23;101825.53;;;24.94;51.05
75767;BME280;64378;55.596;13.014;2023-06-22T02:24:48;101831.06;;;24.94;51.01
75767;BME280;64378;55.596;13.014;2023-06-22T02:27:14;101831.06;;;24.94;50.90
75767;BME280;64378;55.596;13.014;2023-06-22T02:29:39;101832.97;;;24.93;50.68
75767;BME280;64378;55.596;13.014;2023-06-22T02:32:04;101834.06;;;24.92;50.97
75767;BME280;64378;55.596;13.014;2023-06-22T02:34:30;101848.72;;;24.93;50.71
75767;BME280;64378;55.596;13.014;2023-06-22T02:36:55;101841.53;;;24.92;50.91
75767;BME280;64378;55.596;13.014;2023-06-22T02:39:21;101841.53;;;24.92;50.67
75767;BME280;64378;55.596;13.014;2023-06-22T02:41:47;101845.41;;;24.91;50.90
75767;BME280;64378;55.596;13.014;2023-06-22T02:44:12;101846.50;;;24.90;50.95
75767;BME280;64378;55.596;13.014;2023-06-22T02:46:37;101842.63;;;24.91;51.03
75767;BME280;64378;55.596;13.014;2023-06-22T02:49:03;101848.16;;;24.91;51.00
75767;BME280;64378;55.596;13.014;2023-06-22T02:51:28;101838.22;;;24.90;50.90
75767;BME280;64378;55.596;13.014;2023-06-22T02:53:53;101848.16;;;24.91;51.13
75767;BME280;64378;55.596;13.014;2023-06-22T02:56:22;101847.31;;;24.90;51.02
75767;BME280;64378;55.596;13.014;2023-06-22T02:58:50;101843.72;;;24.90;50.88
75767;BME280;64378;55.596;13.014;2023-06-22T03:01:15;101842.88;;;24.89;50.99
75767;BME280;64378;55.596;13.014;2023-06-22T03:03:40;101851.16;;;24.89;50.78
75767;BME280;64378;55.596;13.014;2023-06-22T03:06:06;101849.25;;;24.90;51.12
75767;BME280;64378;55.596;13.014;2023-06-22T03:08:31;101851.72;;;24.91;51.06
75767;BME280;64378;55.596;13.014;2023-06-22T03:10:56;101852.56;;;24.92;51.06
75767;BME280;64378;55.596;13.014;2023-06-22T03:13:21;101862.53;;;24.93;51.04
75767;BME280;64378;55.596;13.014;2023-06-22T03:15:46;101856.72;;;24.94;50.63
75767;BME280;64378;55.596;13.014;2023-06-22T03:18:12;101860.03;;;24.96;50.94
75767;BME280;64378;55.596;13.014;2023-06-22T03:20:37;101856.75;;;24.99;50.53
75767;BME280;64378;55.596;13.014;2023-06-22T03:23:02;101861.72;;;25.02;50.83
75767;BME280;64378;55.596;13.014;2023-06-22T03:25:28;101869.72;;;25.04;50.83
75767;BME280;64378;55.596;13.014;2023-06-22T03:27:53;101867.81;;;25.04;50.50
75767;BME280;64378;55.596;13.014;2023-06-22T03:30:18;101862.84;;;25.06;50.75
75767;BME280;64378;55.596;13.014;2023-06-22T03:32:43;101863.66;;;25.07;50.68
75767;BME280;64378;55.596;13.014;2023-06-22T03:35:09;101867.84;;;25.09;50.36
75767;BME280;64378;55.596;13.014;2023-06-22T03:37:38;101878.88;;;25.09;50.31
75767;BME280;64378;55.596;13.014;2023-06-22T03:40:03;101877.78;;;25.10;50.47
75767;BME280;64378;55.596;13.014;2023-06-22T03:42:33;101879.41;;;25.11;50.37
75767;BME280;64378;55.596;13.014;2023-06-22T03:44:59;101872.78;;;25.12;50.19
75767;BME280;64378;55.596;13.014;2023-06-22T03:47:25;101880.84;;;25.14;50.35
75767;BME280;64378;55.596;13.014;2023-06-22T03:49:51;101874.78;;;25.17;50.13
75767;BME280;64378;55.596;13.014;2023-06-22T03:52:19;101885.56;;;25.18;50.32
75767;BME280;64378;55.596;13.014;2023-06-22T03:54:45;101876.16;;;25.19;50.26
75767;BME280;64378;55.596;13.014;2023-06-22T03:57:10;101888.06;;;25.20;50.23
75767;BME280;64378;55.596;13.014;2023-06-22T03:59:36;101883.09;;;25.22;50.27
75767;BME280;64378;55.596;13.014;2023-06-22T04:02:01;101879.50;;;25.21;50.07
75767;BME280;64378;55.596;13.014;2023-06-22T04:04:27;101879.50;;;25.21;49.91
75767;BME280;64378;55.596;13.014;2023-06-22T04:06:52;101883.09;;;25.22;50.20
75767;BME280;64378;55.596;13.014;2023-06-22T04:09:18;101884.47;;;25.24;49.87
75767;BME280;64378;55.596;13.014;2023-06-22T04:11:43;101898.00;;;25.26;50.27
75767;BME280;64378;55.596;13.014;2023-06-22T04:14:08;101896.09;;;25.26;49.82
75767;BME280;64378;55.596;13.014;2023-06-22T04:16:33;101896.09;;;25.26;49.82
75767;BME280;64378;55.596;13.014;2023-06-22T04:18:59;101900.53;;;25.27;49.85
75767;BME280;64378;55.596;13.014;2023-06-22T04:21:24;101890.56;;;25.26;49.91
75767;BME280;64378;55.596;13.014;2023-06-22T04:23:49;101896.09;;;25.26;49.96
75767;BME280;64378;55.596;13.014;2023-06-22T04:26:14;101890.56;;;25.26;49.82
75767;BME280;64378;55.596;13.014;2023-06-22T04:28:40;101890.56;;;25.26;50.05
75767;BME280;64378;55.596;13.014;2023-06-22T04:31:05;101904.09;;;25.27;50.17
75767;BME280;64378;55.596;13.014;2023-06-22T04:33:31;101911.28;;;25.28;50.05
75767;BME280;64378;55.596;13.014;2023-06-22T04:35:56;101903.00;;;25.28;50.08
75767;BME280;64378;55.596;13.014;2023-06-22T04:38:28;101907.41;;;25.29;49.77
75767;BME280;64378;55.596;13.014;2023-06-22T04:40:54;101898.03;;;25.30;49.74
75767;BME280;64378;55.596;13.014;2023-06-22T04:43:19;101905.50;;;25.30;49.76
75767;BME280;64378;55.596;13.014;2023-06-22T04:45:46;101901.66;;;25.31;49.71
75767;BME280;64378;55.596;13.014;2023-06-22T04:48:17;101911.84;;;25.30;49.82
75767;BME280;64378;55.596;13.014;2023-06-22T04:50:42;101918.22;;;25.31;49.73
75767;BME280;64378;55.596;13.014;2023-06-22T04:53:07;101919.88;;;25.32;49.93
75767;BME280;64378;55.596;13.014;2023-06-22T04:55:34;101912.41;;;25.32;49.59
75767;BME280;64378;55.596;13.014;2023-06-22T04:58:02;101912.16;;;25.34;49.90
75767;BME280;64378;55.596;13.014;2023-06-22T05:00:30;101922.63;;;25.37;49.74
75767;BME280;64378;55.596;13.014;2023-06-22T05:02:55;101922.38;;;25.38;49.50
75767;BME280;64378;55.596;13.014;2023-06-22T05:05:22;101920.44;;;25.39;49.62
75767;BME280;64378;55.596;13.014;2023-06-22T05:07:49;101913.00;;;25.39;49.49
75767;BME280;64378;55.596;13.014;2023-06-22T05:10:15;101914.66;;;25.40;49.65
75767;BME280;64378;55.596;13.014;2023-06-22T05:12:41;101927.09;;;25.43;49.29
75767;BME280;64378;55.596;13.014;2023-06-22T05:15:06;101933.47;;;25.43;49.55
75767;BME280;64378;55.596;13.014;2023-06-22T05:17:32;101939.81;;;25.44;49.33
75767;BME280;64378;55.596;13.014;2023-06-22T05:19:57;101944.22;;;25.45;49.20
75767;BME280;64378;55.596;13.014;2023-06-22T05:22:22;101939.81;;;25.44;49.18
75767;BME280;64378;55.596;13.014;2023-06-22T05:24:48;101928.50;;;25.45;49.16
75767;BME280;64378;55.596;13.014;2023-06-22T05:27:13;101934.84;;;25.46;49.25
75767;BME280;64378;55.596;13.014;2023-06-22T05:29:39;101939.00;;;25.48;49.44
75767;BME280;64378;55.596;13.014;2023-06-22T05:32:04;101939.00;;;25.48;49.29
75767;BME280;64378;55.596;13.014;2023-06-22T05:34:29;101927.94;;;25.48;49.39
75767;BME280;64378;55.596;13.014;2023-06-22T05:36:55;101928.47;;;25.50;49.03
75767;BME280;64378;55.596;13.014;2023-06-22T05:39:20;101936.78;;;25.50;49.10
75767;BME280;64378;55.596;13.014;2023-06-22T05:41:46;101932.09;;;25.51;49.00
75767;BME280;64378;55.596;13.014;2023-06-22T05:44:11;101945.06;;;25.50;48.96
75767;BME280;64378;55.596;13.014;2023-06-22T05:46:37;101945.34;;;25.49;48.87
75767;BME280;64378;55.596;13.014;2023-06-22T05:49:02;101943.41;;;25.49;48.79
75767;BME280;64378;55.596;13.014;2023-06-22T05:51:27;101946.16;;;25.49;48.84
75767;BME280;64378;55.596;13.014;2023-06-22T05:53:53;101947.00;;;25.50;49.10
75767;BME280;64378;55.596;13.014;2023-06-22T05:56:18;101948.69;;;25.51;49.05
75767;BME280;64378;55.596;13.014;2023-06-22T05:58:43;101942.03;;;25.52;48.68
75767;BME280;64378;55.596;13.014;2023-06-22T06:01:08;101934.56;;;25.52;48.90
75767;BME280;64378;55.596;13.014;2023-06-22T06:03:34;101952.81;;;25.53;48.81
75767;BME280;64378;55.596;13.014;2023-06-22T06:05:59;101948.38;;;25.52;48.88
75767;BME280;64378;55.596;13.014;2023-06-22T06:08:24;101944.53;;;25.53;49.00
75767;BME280;64378;55.596;13.014;2023-06-22T06:10:49;101943.44;;;25.54;48.81
75767;BME280;64378;55.596;13.014;2023-06-22T06:13:15;101945.94;;;25.56;48.78
75767;BME280;64378;55.596;13.014;2023-06-22T06:15:40;101940.41;;;25.56;48.77
75767;BME280;64378;55.596;13.014;2023-06-22T06:18:05;101936.53;;;25.57;48.61
75767;BME280;64378;55.596;13.014;2023-06-22T06:20:31;101941.53;;;25.60;48.77
75767;BME280;64378;55.596;13.014;2023-06-22T06:22:57;101941.25;;;25.61;48.72
75767;BME280;64378;55.596;13.014;2023-06-22T06:25:22;101943.47;;;25.64;48.95
75767;BME280;64378;55.596;13.014;2023-06-22T06:27:48;101943.19;;;25.66;48.58
75767;BME280;64378;55.596;13.014;2023-06-22T06:30:14;101942.91;;;25.67;48.55
75767;BME280;64378;55.596;13.014;2023-06-22T06:32:40;101951.78;;;25.69;48.75
75767;BME280;64378;55.596;13.014;2023-06-22T06:35:06;101951.78;;;25.69;48.55
75767;BME280;64378;55.596;13.014;2023-06-22T06:37:33;101953.44;;;25.70;48.68
75767;BME280;64378;55.596;13.014;2023-06-22T06:39:59;101950.38;;;25.72;48.60
75767;BME280;64378;55.596;13.014;2023-06-22T06:42:24;101948.19;;;25.74;48.63
75767;BME280;64378;55.596;13.014;2023-06-22T06:44:49;101949.84;;;25.75;48.56
75767;BME280;64378;55.596;13.014;2023-06-22T06:47:15;101945.97;;;25.76;48.53
75767;BME280;64378;55.596;13.014;2023-06-22T06:49:42;101943.78;;;25.78;48.35
75767;BME280;64378;55.596;13.014;2023-06-22T06:52:07;101949.03;;;25.79;48.60
75767;BME280;64378;55.596;13.014;2023-06-22T06:54:32;101941.31;;;25.81;48.28
75767;BME280;64378;55.596;13.014;2023-06-22T06:56:57;101935.53;;;25.83;48.41
75767;BME280;64378;55.596;13.014;2023-06-22T06:59:22;101939.94;;;25.84;48.60
75767;BME280;64378;55.596;13.014;2023-06-22T07:01:48;101941.06;;;25.83;48.65
75767;BME280;64378;55.596;13.014;2023-06-22T07:04:13;101943.53;;;25.84;48.71
75767;BME280;64378;55.596;13.014;2023-06-22T07:06:39;101938.56;;;25.86;48.46
75767;BME280;64378;55.596;13.014;2023-06-22T07:09:04;101936.34;;;25.88;48.12
75767;BME280;64378;55.596;13.014;2023-06-22T07:11:29;101926.09;;;25.89;48.24
75767;BME280;64378;55.596;13.014;2023-06-22T07:13:54;101939.69;;;25.90;48.12
75767;BME280;64378;55.596;13.014;2023-06-22T07:16:20;101945.78;;;25.92;48.23
75767;BME280;64378;55.596;13.014;2023-06-22T07:18:45;101943.81;;;25.93;48.26
75767;BME280;64378;55.596;13.014;2023-06-22T07:21:10;101937.19;;;25.94;48.23
75767;BME280;64378;55.596;13.014;2023-06-22T07:23:35;101951.00;;;25.94;48.20
75767;BME280;64378;55.596;13.014;2023-06-22T07:26:01;101954.63;;;25.94;48.18
75767;BME280;64378;55.596;13.014;2023-06-22T07:28:27;101950.75;;;25.95;48.57
75767;BME280;64378;55.596;13.014;2023-06-22T07:30:52;101952.41;;;25.96;48.29
75767;BME280;64378;55.596;13.014;2023-06-22T07:33:17;101950.22;;;25.98;48.25
75767;BME280;64378;55.596;13.014;2023-06-22T07:35:43;101952.69;;;26.00;48.11
75767;BME280;64378;55.596;13.014;2023-06-22T07:38:09;101946.88;;;26.01;48.41
75767;BME280;64378;55.596;13.014;2023-06-22T07:40:34;101949.63;;;26.01;48.43
75767;BME280;64378;55.596;13.014;2023-06-22T07:43:00;101956.56;;;26.04;48.05
75767;BME280;64378;55.596;13.014;2023-06-22T07:45:25;101958.22;;;26.05;48.06
75767;BME280;64378;55.596;13.014;2023-06-22T07:47:50;101957.13;;;26.06;48.22
75767;BME280;64378;55.596;13.014;2023-06-22T07:50:16;101961.25;;;26.08;48.08
75767;BME280;64378;55.596;13.014;2023-06-22T07:52:41;101966.53;;;26.10;48.39
75767;BME280;64378;55.596;13.014;2023-06-22T07:55:06;101963.47;;;26.11;48.08
75767;BME280;64378;55.596;13.014;2023-06-22T07:57:32;101950.50;;;26.12;48.12
75767;BME280;64378;55.596;13.014;2023-06-22T07:59:59;101952.97;;;26.13;48.28
75767;BME280;64378;55.596;13.014;2023-06-22T08:02:24;101932.50;;;26.14;48.24
75767;BME280;64378;55.596;13.014;2023-06-22T08:04:50;101935.81;;;26.16;48.16
75767;BME280;64378;55.596;13.014;2023-06-22T08:07:15;101933.06;;;26.16;48.20
75767;BME280;64378;55.596;13.014;2023-06-22T08:09:45;101939.97;;;26.19;47.87
75767;BME280;64378;55.596;13.014;2023-06-22T08:12:10;101950.78;;;26.20;47.86
75767;BME280;64378;55.596;13.014;2023-06-22T08:14:37;101948.00;;;26.20;48.19
75767;BME280;64378;55.596;13.014;2023-06-22T08:17:03;101944.13;;;26.21;48.00
75767;BME280;64378;55.596;13.014;2023-06-22T08:19:28;101935.53;;;26.23;47.89
75767;BME280;64378;55.596;13.014;2023-06-22T08:21:53;101932.53;;;26.24;47.84
75767;BME280;64378;55.596;13.014;2023-06-22T08:24:18;101933.34;;;26.25;47.65
75767;BME280;64378;55.596;13.014;2023-06-22T08:26:44;101923.94;;;26.26;48.08
75767;BME280;64378;55.596;13.014;2023-06-22T08:29:09;101936.66;;;26.27;47.93
75767;BME280;64378;55.596;13.014;2023-06-22T08:31:35;101934.69;;;26.27;48.02
75767;BME280;64378;55.596;13.014;2023-06-22T08:34:01;101940.78;;;26.29;47.70
75767;BME280;64378;55.596;13.014;2023-06-22T08:36:26;101936.09;;;26.30;48.00
75767;BME280;64378;55.596;13.014;2023-06-22T08:38:55;101926.69;;;26.31;47.87
75767;BME280;64378;55.596;13.014;2023-06-22T08:41:26;101938.59;;;26.31;48.02
75767;BME280;64378;55.596;13.014;2023-06-22T08:43:52;101931.13;;;26.32;47.82
75767;BME280;64378;55.596;13.014;2023-06-22T08:46:18;101940.53;;;26.31;47.59
75767;BME280;64378;55.596;13.014;2023-06-22T08:48:47;101940.53;;;26.31;47.58
75767;BME280;64378;55.596;13.014;2023-06-22T08:51:12;101946.88;;;26.31;47.72
75767;BME280;64378;55.596;13.014;2023-06-22T08:53:38;101949.94;;;26.30;47.43
75767;BME280;64378;55.596;13.014;2023-06-22T08:56:04;101945.22;;;26.30;47.68
75767;BME280;64378;55.596;13.014;2023-06-22T08:58:29;101945.22;;;26.30;47.43
75767;BME280;64378;55.596;13.014;2023-06-22T09:00:54;101943.56;;;26.29;47.58
75767;BME280;64378;55.596;13.014;2023-06-22T09:03:20;101943.56;;;26.29;47.49
75767;BME280;64378;55.596;13.014;2023-06-22T09:05:45;101952.72;;;26.30;47.64
75767;BME280;64378;55.596;13.014;2023-06-22T09:08:11;101938.03;;;26.29;47.39
75767;BME280;64378;55.596;13.014;2023-06-22T09:10:36;101935.25;;;26.29;47.46
75767;BME280;64378;55.596;13.014;2023-06-22T09:13:01;101938.03;;;26.29;47.57
75767;BME280;64378;55.596;13.014;2023-06-22T09:15:27;101943.84;;;26.28;47.47
75767;BME280;64378;55.596;13.014;2023-06-22T09:17:52;101937.47;;;26.27;47.40
75767;BME280;64378;55.596;13.014;2023-06-22T09:20:19;101939.13;;;26.28;47.68
75767;BME280;64378;55.596;13.014;2023-06-22T09:22:44;101931.94;;;26.27;47.55
75767;BME280;64378;55.596;13.014;2023-06-22T09:25:10;101936.38;;;26.28;47.30
75767;BME280;64378;55.596;13.014;2023-06-22T09:27:35;101928.91;;;26.29;47.47
75767;BME280;64378;55.596;13.014;2023-06-22T09:30:00;101939.41;;;26.27;47.38
75767;BME280;64378;55.596;13.014;2023-06-22T09:32:26;101943.56;;;26.29;47.51
75767;BME280;64378;55.596;13.014;2023-06-22T09:34:51;101941.91;;;26.28;47.44
75767;BME280;64378;55.596;13.014;2023-06-22T09:37:16;101941.91;;;26.28;47.71
75767;BME280;64378;55.596;13.014;2023-06-22T09:39:42;101939.13;;;26.28;47.39
75767;BME280;64378;55.596;13.014;2023-06-22T09:42:07;101939.97;;;26.29;47.52
75767;BME280;64378;55.596;13.014;2023-06-22T09:44:32;101947.44;;;26.28;47.54
75767;BME280;64378;55.596;13.014;2023-06-22T09:46:58;101950.19;;;26.28;47.41
75767;BME280;64378;55.596;13.014;2023-06-22T09:49:23;101943.84;;;26.28;47.25
75767;BME280;64378;55.596;13.014;2023-06-22T09:51:48;101944.66;;;26.28;47.68
75767;BME280;64378;55.596;13.014;2023-06-22T09:54:14;101944.66;;;26.28;47.46
75767;BME280;64378;55.596;13.014;2023-06-22T09:56:39;101938.31;;;26.28;47.12
75767;BME280;64378;55.596;13.014;2023-06-22T09:59:05;101930.81;;;26.28;47.24
75767;BME280;64378;55.596;13.014;2023-06-22T10:01:30;101935.56;;;26.28;47.31
75767;BME280;64378;55.596;13.014;2023-06-22T10:03:55;101927.25;;;26.28;47.61
75767;BME280;64378;55.596;13.014;2023-06-22T10:06:21;101936.38;;;26.28;47.58
75767;BME280;64378;55.596;13.014;2023-06-22T10:08:46;101932.50;;;26.29;47.61
75767;BME280;64378;55.596;13.014;2023-06-22T10:11:13;101939.97;;;26.29;47.60
75767;BME280;64378;55.596;13.014;2023-06-22T10:13:38;101930.81;;;26.28;47.49
75767;BME280;64378;55.596;13.014;2023-06-22T10:16:03;101926.97;;;26.29;47.49
75767;BME280;64378;55.596;13.014;2023-06-22T10:18:29;101918.66;;;26.29;47.74
75767;BME280;64378;55.596;13.014;2023-06-22T10:20:55;101921.41;;;26.29;47.27
75767;BME280;64378;55.596;13.014;2023-06-22T10:23:20;101925.03;;;26.30;47.50
75767;BME280;64378;55.596;13.014;2023-06-22T10:25:46;101933.03;;;26.31;47.43
75767;BME280;64378;55.596;13.014;2023-06-22T10:28:11;101934.16;;;26.35;48.32
75767;BME280;64378;55.596;13.014;2023-06-22T10:30:37;101937.47;;;26.37;48.03
75767;BME280;64378;55.596;13.014;2023-06-22T10:33:03;101932.50;;;26.39;47.96
75767;BME280;64378;55.596;13.014;2023-06-22T10:35:28;101929.72;;;26.39;47.96
75767;BME280;64378;55.596;13.014;2023-06-22T10:37:54;101928.88;;;26.38;48.24
75767;BME280;64378;55.596;13.014;2023-06-22T10:40:19;101930.84;;;26.38;48.05
75767;BME280;64378;55.596;13.014;2023-06-22T10:42:45;101932.78;;;26.38;48.30
75767;BME280;64378;55.596;13.014;2023-06-22T10:45:10;101931.94;;;26.37;48.07
75767;BME280;64378;55.596;13.014;2023-06-22T10:47:36;101931.94;;;26.37;47.80
75767;BME280;64378;55.596;13.014;2023-06-22T10:50:02;101930.28;;;26.36;47.83
75767;BME280;64378;55.596;13.014;2023-06-22T10:52:27;101928.63;;;26.35;48.05
75767;BME280;64378;55.596;13.014;2023-06-22T10:54:52;101924.75;;;26.36;47.83
75767;BME280;64378;55.596;13.014;2023-06-22T10:57:18;101914.78;;;26.35;47.89
75767;BME280;64378;55.596;13.014;2023-06-22T10:59:43;101922.28;;;26.35;47.80
75767;BME280;64378;55.596;13.014;2023-06-22T11:02:08;101917.84;;;26.34;48.03
75767;BME280;64378;55.596;13.014;2023-06-22T11:04:34;101921.44;;;26.34;47.85
75767;BME280;64378;55.596;13.014;2023-06-22T11:06:59;101921.44;;;26.34;47.71
75767;BME280;64378;55.596;13.014;2023-06-22T11:09:24;101923.38;;;26.34;47.74
75767;BME280;64378;55.596;13.014;2023-06-22T11:11:50;101911.47;;;26.33;47.88
75767;BME280;64378;55.596;13.014;2023-06-22T11:14:16;101914.22;;;26.33;47.56
75767;BME280;64378;55.596;13.014;2023-06-22T11:16:41;101911.47;;;26.33;47.44
75767;BME280;64378;55.596;13.014;2023-06-22T11:19:06;101915.34;;;26.32;47.50
75767;BME280;64378;55.596;13.014;2023-06-22T11:21:31;101917.00;;;26.33;47.51
75767;BME280;64378;55.596;13.014;2023-06-22T11:23:57;101921.72;;;26.33;47.44
75767;BME280;64378;55.596;13.014;2023-06-22T11:26:23;101914.53;;;26.32;47.61
75767;BME280;64378;55.596;13.014;2023-06-22T11:28:48;101914.53;;;26.32;47.59
75767;BME280;64378;55.596;13.014;2023-06-22T11:31:14;101921.72;;;26.33;47.68
75767;BME280;64378;55.596;13.014;2023-06-22T11:33:39;101923.63;;;26.32;47.46
75767;BME280;64378;55.596;13.014;2023-06-22T11:36:04;101916.44;;;26.31;47.45
75767;BME280;64378;55.596;13.014;2023-06-22T11:38:30;101924.47;;;26.33;47.46
75767;BME280;64378;55.596;13.014;2023-06-22T11:40:55;101909.81;;;26.32;47.59
75767;BME280;64378;55.596;13.014;2023-06-22T11:43:21;101910.91;;;26.31;47.50
75767;BME280;64378;55.596;13.014;2023-06-22T11:45:46;101912.56;;;26.32;47.46
75767;BME280;64378;55.596;13.014;2023-06-22T11:48:11;101922.81;;;26.32;47.25
75767;BME280;64378;55.596;13.014;2023-06-22T11:50:37;101919.22;;;26.31;47.52
75767;BME280;64378;55.596;13.014;2023-06-22T11:53:02;101923.63;;;26.32;47.28
75767;BME280;64378;55.596;13.014;2023-06-22T11:55:28;101913.69;;;26.31;47.25
75767;BME280;64378;55.596;13.014;2023-06-22T11:57:56;101921.97;;;26.31;47.45
75767;BME280;64378;55.596;13.014;2023-06-22T12:00:24;101912.84;;;26.31;47.08
75767;BME280;64378;55.596;13.014;2023-06-22T12:02:50;101913.69;;;26.31;47.19
75767;BME280;64378;55.596;13.014;2023-06-22T12:05:17;101921.97;;;26.31;47.20
75767;BME280;64378;55.596;13.014;2023-06-22T12:07:42;101917.53;;;26.30;47.40
75767;BME280;64378;55.596;13.014;2023-06-22T12:10:08;101912.56;;;26.32;47.07
75767;BME280;64378;55.596;13.014;2023-06-22T12:12:33;101917.28;;;26.32;46.94
75767;BME280;64378;55.596;13.014;2023-06-22T12:14:58;101912.84;;;26.31;47.06
75767;BME280;64378;55.596;13.014;2023-06-22T12:17:28;101912.84;;;26.31;47.03
75767;BME280;64378;55.596;13.014;2023-06-22T12:19:53;101913.69;;;26.31;47.05
75767;BME280;64378;55.596;13.014;2023-06-22T12:22:18;101912.84;;;26.31;45.96
75767;BME280;64378;55.596;13.014;2023-06-22T12:24:43;101908.69;;;26.28;43.59
75767;BME280;64378;55.596;13.014;2023-06-22T12:27:08;101913.97;;;26.20;44.14
75767;BME280;64378;55.596;13.014;2023-06-22T12:29:35;101908.16;;;26.16;43.90
75767;BME280;64378;55.596;13.014;2023-06-22T12:32:00;101914.53;;;26.12;43.11
75767;BME280;64378;55.596;13.014;2023-06-22T12:34:25;101910.38;;;26.09;43.58
75767;BME280;64378;55.596;13.014;2023-06-22T12:36:50;101913.44;;;26.08;43.17
75767;BME280;64378;55.596;13.014;2023-06-22T12:39:15;101908.16;;;26.06;42.41
75767;BME280;64378;55.596;13.014;2023-06-22T12:41:41;101915.34;;;25.97;42.89